createdAt,value
2023-01-25T00:00:44.267Z,2.30
2023-01-25T00:03:10.929Z,2.20
2023-01-25T00:05:37.614Z,2.30
2023-01-25T00:08:04.437Z,2.30
2023-01-25T00:10:31.090Z,2.30
2023-01-25T00:12:57.764Z,2.30
2023-01-25T00:15:24.609Z,2.30
2023-01-25T00:17:51.387Z,2.40
2023-01-25T00:20:18.120Z,2.40
2023-01-25T00:22:44.797Z,2.40
2023-01-25T00:25:11.475Z,2.40
2023-01-25T00:27:38.103Z,2.40
2023-01-25T00:30:05.072Z,2.40
2023-01-25T00:32:52.016Z,2.30
2023-01-25T00:35:18.679Z,2.30
2023-01-25T00:37:49.751Z,2.40
2023-01-25T00:40:16.598Z,2.40
2023-01-25T00:42:43.228Z,2.40
2023-01-25T00:45:10.843Z,2.40
2023-01-25T00:47:37.539Z,2.30
2023-01-25T00:50:05.249Z,2.40
2023-01-25T00:52:31.894Z,2.30
2023-01-25T00:54:58.556Z,2.50
2023-01-25T00:57:25.222Z,2.40
2023-01-25T00:59:51.915Z,2.50
2023-01-25T01:02:18.561Z,2.50
2023-01-25T01:04:45.283Z,2.40
2023-01-25T01:07:12.911Z,2.40
2023-01-25T01:09:39.672Z,2.40
2023-01-25T01:12:06.503Z,2.40
2023-01-25T01:14:33.309Z,2.40
2023-01-25T01:17:00.058Z,2.40
2023-01-25T01:19:26.721Z,2.50
2023-01-25T01:21:53.353Z,2.40
2023-01-25T01:24:20.188Z,2.50
2023-01-25T01:26:46.918Z,2.40
2023-01-25T01:29:13.656Z,2.30
2023-01-25T01:31:40.406Z,2.30
2023-01-25T01:34:07.162Z,2.30
2023-01-25T01:36:33.895Z,2.30
2023-01-25T01:39:00.656Z,2.30
2023-01-25T01:41:27.742Z,2.30
2023-01-25T01:43:54.716Z,2.30
2023-01-25T01:46:27.017Z,2.30
2023-01-25T01:48:59.584Z,2.40
2023-01-25T01:51:49.252Z,2.40
2023-01-25T01:54:22.116Z,2.30
2023-01-25T01:56:52.251Z,2.40
2023-01-25T01:59:19.541Z,2.30
2023-01-25T02:01:46.339Z,2.30
2023-01-25T02:04:13.191Z,2.30
2023-01-25T02:06:44.193Z,2.30
2023-01-25T02:09:11.844Z,2.30
2023-01-25T02:11:38.604Z,2.30
2023-01-25T02:14:05.993Z,2.30
2023-01-25T02:16:32.708Z,2.30
2023-01-25T02:19:02.220Z,2.40
2023-01-25T02:21:33.654Z,2.40
2023-01-25T02:24:09.387Z,2.40
2023-01-25T02:26:36.040Z,2.50
2023-01-25T02:29:04.190Z,2.50
2023-01-25T02:31:30.970Z,2.40
2023-01-25T02:33:57.691Z,2.50
2023-01-25T02:36:25.945Z,2.50
2023-01-25T02:39:05.270Z,2.60
2023-01-25T02:41:34.032Z,2.50
2023-01-25T02:44:01.875Z,2.50
2023-01-25T02:46:31.687Z,2.60
2023-01-25T02:48:59.161Z,2.60
2023-01-25T02:51:26.772Z,2.60
2023-01-25T02:53:53.483Z,2.40
2023-01-25T02:56:20.163Z,2.60
2023-01-25T02:58:47.068Z,2.40
2023-01-25T03:01:14.086Z,2.50
2023-01-25T03:03:41.152Z,2.40
2023-01-25T03:06:08.115Z,2.40
2023-01-25T03:08:35.331Z,2.40
2023-01-25T03:11:03.038Z,2.40
2023-01-25T03:13:29.882Z,2.30
2023-01-25T03:16:00.941Z,2.40
2023-01-25T03:18:27.693Z,2.30
2023-01-25T03:20:54.416Z,2.40
2023-01-25T03:23:21.170Z,2.30
2023-01-25T03:25:47.804Z,2.30
2023-01-25T03:28:14.502Z,2.30
2023-01-25T03:30:41.261Z,2.20
2023-01-25T03:33:08.270Z,2.20
2023-01-25T03:35:34.899Z,2.20
2023-01-25T03:38:01.577Z,2.20
2023-01-25T03:40:28.221Z,2.30
2023-01-25T03:42:54.976Z,2.30
2023-01-25T03:45:21.629Z,2.30
2023-01-25T03:47:48.246Z,2.40
2023-01-25T03:50:15.032Z,2.40
2023-01-25T03:52:45.315Z,2.40
2023-01-25T03:55:12.109Z,2.50
2023-01-25T03:57:38.790Z,2.50
2023-01-25T04:00:05.808Z,2.40
2023-01-25T04:02:32.533Z,2.40
2023-01-25T04:04:59.251Z,2.40
2023-01-25T04:07:25.974Z,2.50
2023-01-25T04:09:52.727Z,2.50
2023-01-25T04:12:19.389Z,2.50
2023-01-25T04:14:46.069Z,2.50
2023-01-25T04:17:14.104Z,2.50
2023-01-25T04:19:40.798Z,2.50
2023-01-25T04:22:08.890Z,2.50
2023-01-25T04:24:35.543Z,2.50
2023-01-25T04:27:02.204Z,2.40
2023-01-25T04:29:40.578Z,2.40
2023-01-25T04:32:08.335Z,2.50
2023-01-25T04:34:35.025Z,2.40
2023-01-25T04:37:01.772Z,2.40
2023-01-25T04:39:28.456Z,2.40
2023-01-25T04:41:55.073Z,2.50
2023-01-25T04:44:21.720Z,2.50
2023-01-25T04:46:49.525Z,2.50
2023-01-25T04:49:16.147Z,2.60
2023-01-25T04:51:42.771Z,2.70
2023-01-25T04:54:09.479Z,2.70
2023-01-25T04:56:36.152Z,2.60
2023-01-25T04:59:02.808Z,2.50
2023-01-25T05:01:29.640Z,2.50
2023-01-25T05:03:56.312Z,2.40
2023-01-25T05:06:22.962Z,2.30
2023-01-25T05:08:49.672Z,2.20
2023-01-25T05:11:16.321Z,2.20
2023-01-25T05:13:42.953Z,2.20
2023-01-25T05:16:09.893Z,2.20
2023-01-25T05:18:47.985Z,2.20
2023-01-25T05:21:34.133Z,2.20
2023-01-25T05:24:00.901Z,2.20
2023-01-25T05:26:46.363Z,2.20
2023-01-25T05:29:13.119Z,2.20
2023-01-25T05:31:39.771Z,2.30
2023-01-25T05:34:06.500Z,2.40
2023-01-25T05:36:33.137Z,2.40
2023-01-25T05:38:59.781Z,2.30
2023-01-25T05:41:26.406Z,2.30
2023-01-25T05:43:53.017Z,2.30
2023-01-25T05:46:19.673Z,2.30
2023-01-25T05:48:47.626Z,2.30
2023-01-25T05:51:14.378Z,2.40
2023-01-25T05:53:41.030Z,2.40
2023-01-25T05:56:08.024Z,2.40
2023-01-25T05:58:34.719Z,2.50
2023-01-25T06:01:02.705Z,2.50
2023-01-25T06:03:29.603Z,2.50
2023-01-25T06:05:56.834Z,2.40
2023-01-25T06:08:23.734Z,2.40
2023-01-25T06:10:50.863Z,2.30
2023-01-25T06:13:17.806Z,2.30
2023-01-25T06:15:51.842Z,2.30
2023-01-25T06:18:18.544Z,2.40
2023-01-25T06:20:45.226Z,2.40
2023-01-25T06:23:11.886Z,2.30
2023-01-25T06:25:38.555Z,2.30
2023-01-25T06:28:05.748Z,2.20
2023-01-25T06:30:32.558Z,2.20
2023-01-25T06:32:59.333Z,2.20
2023-01-25T06:35:26.163Z,2.20
2023-01-25T06:37:55.773Z,2.10
2023-01-25T06:40:22.480Z,2.20
2023-01-25T06:42:49.324Z,2.20
2023-01-25T06:45:15.994Z,2.30
2023-01-25T06:47:42.652Z,2.30
2023-01-25T06:50:10.189Z,2.30
2023-01-25T06:52:36.944Z,2.30
2023-01-25T06:55:04.220Z,2.30
2023-01-25T06:57:30.932Z,2.30
2023-01-25T06:59:57.580Z,2.20
2023-01-25T07:02:24.312Z,2.10
2023-01-25T07:04:50.952Z,2.10
2023-01-25T07:07:17.648Z,2.10
2023-01-25T07:09:44.280Z,2.20
2023-01-25T07:12:11.022Z,2.10
2023-01-25T07:14:37.663Z,2.10
2023-01-25T07:17:04.363Z,2.10
2023-01-25T07:19:31.374Z,2.20
2023-01-25T07:21:58.071Z,2.10
2023-01-25T07:24:27.186Z,2.10
2023-01-25T07:26:54.038Z,2.10
2023-01-25T07:29:20.753Z,2.10
2023-01-25T07:31:47.585Z,2.10
2023-01-25T07:34:14.584Z,2.00
2023-01-25T07:36:41.505Z,2.00
2023-01-25T07:39:10.146Z,1.90
2023-01-25T07:41:36.800Z,1.90
2023-01-25T07:44:03.590Z,1.90
2023-01-25T07:46:30.239Z,1.90
2023-01-25T07:48:58.898Z,2.00
2023-01-25T07:51:30.795Z,2.00
2023-01-25T07:53:58.671Z,2.00
2023-01-25T07:56:26.722Z,2.00
2023-01-25T07:58:54.934Z,2.00
2023-01-25T08:01:23.327Z,2.10
2023-01-25T08:03:50.410Z,1.90
2023-01-25T08:06:17.493Z,1.90
2023-01-25T08:08:45.711Z,1.90
2023-01-25T08:11:13.346Z,2.00
2023-01-25T08:13:40.737Z,2.00
2023-01-25T08:16:07.528Z,2.00
2023-01-25T08:18:35.913Z,1.90
2023-01-25T08:21:03.364Z,1.80
2023-01-25T08:23:30.367Z,1.90
2023-01-25T08:26:01.409Z,1.90
2023-01-25T08:28:28.183Z,2.00
2023-01-25T08:30:57.564Z,2.00
2023-01-25T08:33:24.436Z,2.00
2023-01-25T08:35:54.530Z,2.00
2023-01-25T08:38:21.212Z,2.10
2023-01-25T08:40:48.114Z,2.10
2023-01-25T08:43:14.755Z,2.20
2023-01-25T08:45:41.427Z,2.20
2023-01-25T08:48:08.070Z,2.20
2023-01-25T08:50:34.743Z,2.10
2023-01-25T08:53:01.400Z,2.20
2023-01-25T08:55:28.067Z,2.10
2023-01-25T08:57:56.645Z,2.00
2023-01-25T09:00:24.283Z,2.10
2023-01-25T09:02:50.973Z,2.10
2023-01-25T09:05:17.780Z,2.10
2023-01-25T09:07:44.559Z,2.10
2023-01-25T09:10:11.711Z,2.10
2023-01-25T09:12:38.525Z,2.00
2023-01-25T09:15:05.410Z,2.00
2023-01-25T09:17:32.217Z,2.00
2023-01-25T09:19:58.903Z,2.00
2023-01-25T09:22:25.583Z,2.00
2023-01-25T09:24:53.972Z,2.00
2023-01-25T09:27:20.803Z,2.00
2023-01-25T09:30:00.979Z,2.00
2023-01-25T09:32:29.124Z,2.10
2023-01-25T09:34:55.949Z,2.10
2023-01-25T09:37:22.672Z,2.00
2023-01-25T09:39:49.322Z,2.00
2023-01-25T09:42:22.517Z,2.00
2023-01-25T09:45:08.113Z,2.10
2023-01-25T09:47:37.554Z,2.10
2023-01-25T09:50:19.685Z,2.10
2023-01-25T09:53:04.939Z,2.20
2023-01-25T09:55:32.627Z,2.30
2023-01-25T09:58:01.481Z,2.10
2023-01-25T10:00:34.186Z,2.10
2023-01-25T10:03:06.386Z,2.20
2023-01-25T10:05:37.621Z,2.20
2023-01-25T10:08:08.581Z,2.20
2023-01-25T10:10:35.227Z,2.20
2023-01-25T10:13:03.164Z,2.30
2023-01-25T10:15:33.015Z,2.40
2023-01-25T10:18:01.836Z,2.40
2023-01-25T10:20:33.404Z,2.50
2023-01-25T10:23:00.046Z,2.60
2023-01-25T10:25:36.101Z,2.50
2023-01-25T10:28:08.958Z,2.50
2023-01-25T10:30:39.938Z,2.30
2023-01-25T10:33:18.704Z,2.40
2023-01-25T10:35:48.415Z,2.40
2023-01-25T10:38:19.786Z,2.40
2023-01-25T10:40:49.893Z,2.40
2023-01-25T10:43:18.500Z,2.40
2023-01-25T10:45:45.253Z,2.30
2023-01-25T10:48:20.209Z,2.30
2023-01-25T10:50:48.376Z,2.30
2023-01-25T10:53:23.897Z,2.40
2023-01-25T10:55:56.579Z,2.40
2023-01-25T10:58:30.497Z,2.50
2023-01-25T11:00:57.270Z,2.60
2023-01-25T11:03:33.566Z,2.60
2023-01-25T11:06:00.345Z,2.70
2023-01-25T11:08:33.481Z,2.60
2023-01-25T11:11:00.631Z,2.60
2023-01-25T11:13:33.263Z,2.60
2023-01-25T11:15:59.961Z,2.50
2023-01-25T11:18:29.480Z,2.40
2023-01-25T11:21:05.290Z,2.40
2023-01-25T11:23:33.755Z,2.40
2023-01-25T11:26:19.807Z,2.40
2023-01-25T11:28:50.042Z,2.40
2023-01-25T11:31:19.490Z,2.40
2023-01-25T11:33:46.264Z,2.30
2023-01-25T11:36:29.007Z,2.30
2023-01-25T11:39:13.769Z,2.30
2023-01-25T11:41:59.342Z,2.40
2023-01-25T11:44:44.733Z,2.40
2023-01-25T11:47:26.670Z,2.50
2023-01-25T11:49:59.427Z,2.40
2023-01-25T11:52:26.084Z,2.50
2023-01-25T11:54:52.735Z,2.50
2023-01-25T11:57:25.513Z,2.50
2023-01-25T11:59:58.062Z,2.50
2023-01-25T12:02:45.118Z,2.50
2023-01-25T12:05:24.053Z,2.60
2023-01-25T12:08:02.948Z,2.70
2023-01-25T12:10:40.162Z,2.70
2023-01-25T12:13:25.593Z,2.60
2023-01-25T12:15:52.466Z,2.60
2023-01-25T12:18:19.184Z,2.70
2023-01-25T12:21:08.003Z,2.70
2023-01-25T12:23:53.512Z,2.60
2023-01-25T12:26:32.657Z,2.50
2023-01-25T12:28:59.282Z,2.50
2023-01-25T12:31:38.169Z,2.50
2023-01-25T12:34:08.337Z,2.50
2023-01-25T12:36:39.752Z,2.50
2023-01-25T12:39:18.607Z,2.70
2023-01-25T12:41:54.154Z,2.80
2023-01-25T12:44:23.596Z,2.80
2023-01-25T12:46:52.823Z,2.80
2023-01-25T12:49:37.147Z,2.80
2023-01-25T12:52:11.845Z,2.80
2023-01-25T12:54:40.978Z,2.90
2023-01-25T12:57:11.929Z,2.80
2023-01-25T12:59:58.867Z,2.90
2023-01-25T13:02:32.134Z,3.00
2023-01-25T13:04:58.806Z,3.00
2023-01-25T13:07:29.881Z,3.10
2023-01-25T13:10:01.583Z,3.10
2023-01-25T13:12:28.463Z,3.10
2023-01-25T13:14:55.172Z,3.10
2023-01-25T13:17:27.661Z,3.20
2023-01-25T13:19:54.626Z,3.20
2023-01-25T13:22:42.642Z,3.30
2023-01-25T13:25:29.912Z,3.20
2023-01-25T13:28:17.068Z,3.10
2023-01-25T13:30:53.538Z,2.90
2023-01-25T13:33:40.559Z,3.00
2023-01-25T13:36:26.008Z,3.10
2023-01-25T13:38:52.785Z,3.20
2023-01-25T13:41:19.684Z,3.20
2023-01-25T13:43:48.155Z,3.20
2023-01-25T13:46:16.756Z,3.20
2023-01-25T13:48:53.249Z,3.20
2023-01-25T13:51:20.717Z,3.20
2023-01-25T13:53:57.393Z,3.10
2023-01-25T13:56:28.602Z,2.90
2023-01-25T13:58:55.295Z,2.80
2023-01-25T14:01:23.796Z,2.70
2023-01-25T14:03:52.691Z,2.70
2023-01-25T14:06:21.915Z,2.70
2023-01-25T14:08:48.996Z,2.70
2023-01-25T14:11:22.539Z,3.00
2023-01-25T14:13:56.124Z,2.60
2023-01-25T14:16:22.850Z,2.60
2023-01-25T14:18:49.653Z,2.50
2023-01-25T14:21:18.111Z,2.50
2023-01-25T14:23:45.339Z,2.50
2023-01-25T14:26:22.661Z,2.50
2023-01-25T14:28:59.603Z,2.20
2023-01-25T14:31:32.128Z,2.40
2023-01-25T14:33:58.953Z,2.30
2023-01-25T14:36:29.773Z,2.30
2023-01-25T14:38:56.652Z,2.40
2023-01-25T14:41:26.392Z,2.50
2023-01-25T14:44:01.452Z,2.50
2023-01-25T14:46:28.135Z,2.50
2023-01-25T14:49:16.000Z,2.50
2023-01-25T14:51:44.964Z,2.50
2023-01-25T14:54:37.651Z,2.40
2023-01-25T14:57:07.786Z,2.50
2023-01-25T14:59:42.238Z,2.40
2023-01-25T15:02:27.374Z,2.30
2023-01-25T15:04:54.184Z,2.30
2023-01-25T15:07:39.421Z,2.20
2023-01-25T15:10:16.263Z,2.30
2023-01-25T15:12:58.522Z,2.20
2023-01-25T15:15:35.496Z,2.20
2023-01-25T15:18:05.198Z,2.30
2023-01-25T15:20:36.282Z,2.30
2023-01-25T15:23:11.578Z,2.40
2023-01-25T15:25:57.667Z,2.30
2023-01-25T15:28:25.518Z,2.40
2023-01-25T15:30:52.720Z,2.40
2023-01-25T15:33:23.776Z,2.40
2023-01-25T15:35:54.939Z,2.40
2023-01-25T15:38:22.573Z,2.30
2023-01-25T15:40:49.225Z,2.20
2023-01-25T15:43:16.901Z,2.20
2023-01-25T15:45:44.285Z,2.20
2023-01-25T15:48:15.016Z,2.10
2023-01-25T15:50:42.273Z,2.10
2023-01-25T15:53:15.097Z,2.10
2023-01-25T15:55:42.576Z,2.10
2023-01-25T15:58:14.263Z,2.20
2023-01-25T16:00:44.129Z,2.00
2023-01-25T16:03:10.871Z,2.00
2023-01-25T16:05:37.549Z,2.10
2023-01-25T16:08:04.344Z,2.10
2023-01-25T16:10:31.016Z,2.20
2023-01-25T16:12:58.075Z,2.10
2023-01-25T16:15:24.738Z,2.10
2023-01-25T16:17:51.357Z,2.20
2023-01-25T16:20:19.160Z,2.20
2023-01-25T16:22:46.140Z,2.20
2023-01-25T16:25:13.160Z,2.10
2023-01-25T16:27:40.032Z,2.00
2023-01-25T16:30:07.887Z,2.00
2023-01-25T16:32:34.783Z,1.90
2023-01-25T16:35:01.412Z,1.90
2023-01-25T16:37:28.108Z,1.90
2023-01-25T16:39:54.786Z,2.00
2023-01-25T16:42:22.784Z,1.90
2023-01-25T16:44:49.885Z,1.90
2023-01-25T16:47:16.560Z,1.90
2023-01-25T16:49:43.207Z,1.90
2023-01-25T16:52:10.656Z,1.90
2023-01-25T16:54:37.412Z,1.90
2023-01-25T16:57:15.131Z,1.90
2023-01-25T16:59:46.475Z,1.90
2023-01-25T17:02:13.170Z,1.80
2023-01-25T17:04:39.916Z,1.60
2023-01-25T17:07:08.597Z,1.60
2023-01-25T17:09:35.355Z,1.60
2023-01-25T17:12:02.057Z,1.60
2023-01-25T17:14:28.739Z,1.60
2023-01-25T17:16:55.578Z,1.70
2023-01-25T17:19:22.302Z,1.70
2023-01-25T17:21:49.008Z,1.70
2023-01-25T17:24:17.564Z,1.80
2023-01-25T17:26:44.451Z,1.80
2023-01-25T17:29:11.222Z,1.80
2023-01-25T17:31:38.300Z,1.80
2023-01-25T17:34:06.020Z,1.80
2023-01-25T17:36:32.714Z,1.80
2023-01-25T17:39:05.013Z,1.70
2023-01-25T17:41:32.237Z,1.80
2023-01-25T17:43:59.132Z,1.80
2023-01-25T17:46:29.601Z,1.90
2023-01-25T17:48:57.020Z,1.80
2023-01-25T17:51:24.985Z,1.80
2023-01-25T17:53:52.429Z,1.80
2023-01-25T17:56:19.490Z,1.80
2023-01-25T17:58:46.447Z,1.80
2023-01-25T18:01:14.471Z,1.60
2023-01-25T18:03:44.685Z,1.60
2023-01-25T18:06:13.971Z,1.60
2023-01-25T18:08:41.708Z,1.60
2023-01-25T18:11:09.002Z,1.50
2023-01-25T18:13:38.924Z,1.40
2023-01-25T18:16:06.484Z,1.40
2023-01-25T18:18:33.295Z,1.40
2023-01-25T18:21:17.084Z,1.40
2023-01-25T18:23:46.994Z,1.50
2023-01-25T18:26:24.277Z,1.40
2023-01-25T18:28:53.177Z,1.40
2023-01-25T18:31:20.074Z,1.40
2023-01-25T18:33:46.779Z,1.40
2023-01-25T18:36:17.514Z,1.50
2023-01-25T18:38:44.870Z,1.50
2023-01-25T18:41:12.003Z,1.50
2023-01-25T18:43:38.682Z,1.50
2023-01-25T18:46:05.506Z,1.60
2023-01-25T18:48:32.249Z,1.60
2023-01-25T18:51:00.345Z,1.50
2023-01-25T18:53:27.355Z,1.60
2023-01-25T18:56:12.786Z,1.60
2023-01-25T18:58:39.717Z,1.70
2023-01-25T19:01:08.363Z,1.70
2023-01-25T19:03:35.135Z,1.70
2023-01-25T19:06:02.290Z,1.70
2023-01-25T19:08:31.697Z,1.70
2023-01-25T19:11:08.581Z,1.70
2023-01-25T19:13:36.339Z,1.70
2023-01-25T19:16:07.738Z,1.70
2023-01-25T19:18:35.596Z,1.60
2023-01-25T19:21:02.298Z,1.70
2023-01-25T19:23:35.787Z,1.70
2023-01-25T19:26:02.695Z,1.70
2023-01-25T19:28:29.736Z,1.70
2023-01-25T19:30:57.001Z,1.70
2023-01-25T19:33:23.676Z,1.70
2023-01-25T19:35:57.918Z,1.70
2023-01-25T19:38:24.516Z,1.70
2023-01-25T19:40:51.130Z,1.70
2023-01-25T19:43:17.838Z,1.70
2023-01-25T19:45:44.655Z,1.70
2023-01-25T19:48:11.353Z,1.60
2023-01-25T19:50:38.016Z,1.60
2023-01-25T19:53:04.670Z,1.70
2023-01-25T19:55:31.595Z,1.70
2023-01-25T19:57:58.262Z,1.70
2023-01-25T20:00:25.366Z,1.60
2023-01-25T20:02:51.971Z,1.60
2023-01-25T20:05:18.651Z,1.60
2023-01-25T20:07:45.354Z,1.50
2023-01-25T20:10:12.160Z,1.50
2023-01-25T20:12:38.785Z,1.40
2023-01-25T20:15:05.820Z,1.40
2023-01-25T20:17:33.179Z,1.40
2023-01-25T20:19:59.804Z,1.40
2023-01-25T20:22:26.449Z,1.40
2023-01-25T20:24:53.159Z,1.30
2023-01-25T20:27:20.049Z,1.30
2023-01-25T20:29:48.264Z,1.20
2023-01-25T20:32:31.496Z,1.30
2023-01-25T20:35:03.459Z,1.30
2023-01-25T20:37:30.326Z,1.30
2023-01-25T20:39:56.978Z,1.30
2023-01-25T20:42:23.638Z,1.40
2023-01-25T20:44:50.322Z,1.50
2023-01-25T20:47:17.000Z,1.50
2023-01-25T20:49:43.770Z,1.50
2023-01-25T20:52:13.773Z,1.50
2023-01-25T20:54:41.778Z,1.50
2023-01-25T20:57:08.425Z,1.50
2023-01-25T20:59:35.067Z,1.50
2023-01-25T21:02:01.838Z,1.40
2023-01-25T21:04:28.518Z,1.50
2023-01-25T21:06:55.181Z,1.50
2023-01-25T21:09:23.349Z,1.50
2023-01-25T21:11:50.095Z,1.40
2023-01-25T21:14:16.910Z,1.40
2023-01-25T21:16:43.553Z,1.40
2023-01-25T21:19:10.446Z,1.40
2023-01-25T21:21:38.513Z,1.50
2023-01-25T21:24:05.949Z,1.50
2023-01-25T21:26:33.927Z,1.50
2023-01-25T21:29:01.566Z,1.60
2023-01-25T21:31:29.516Z,1.50
2023-01-25T21:33:56.385Z,1.60
2023-01-25T21:36:23.342Z,1.50
2023-01-25T21:38:52.124Z,1.40
2023-01-25T21:41:20.083Z,1.40
2023-01-25T21:44:05.877Z,1.40
2023-01-25T21:46:33.241Z,1.30
2023-01-25T21:49:28.982Z,1.40
2023-01-25T21:51:57.925Z,1.40
2023-01-25T21:54:29.079Z,1.40
2023-01-25T21:56:56.457Z,1.40
2023-01-25T21:59:23.492Z,1.40
2023-01-25T22:01:50.716Z,1.20
2023-01-25T22:04:18.190Z,1.10
2023-01-25T22:06:45.212Z,1.10
2023-01-25T22:09:15.252Z,1.00
2023-01-25T22:11:42.049Z,1.00
2023-01-25T22:14:08.670Z,1.10
2023-01-25T22:16:35.304Z,1.20
2023-01-25T22:19:02.051Z,1.30
2023-01-25T22:21:31.048Z,1.30
2023-01-25T22:24:01.752Z,1.40
2023-01-25T22:26:47.672Z,1.40
2023-01-25T22:29:15.062Z,1.40
2023-01-25T22:31:41.901Z,1.50
2023-01-25T22:34:09.693Z,1.50
2023-01-25T22:36:36.422Z,1.40
2023-01-25T22:39:03.124Z,1.40
2023-01-25T22:41:30.894Z,1.40
2023-01-25T22:43:57.947Z,1.40
2023-01-25T22:46:25.714Z,1.40
2023-01-25T22:48:52.573Z,1.40
2023-01-25T22:51:25.449Z,1.40
2023-01-25T22:53:52.863Z,1.40
2023-01-25T22:56:20.661Z,1.40
2023-01-25T22:58:47.521Z,1.40
2023-01-25T23:01:19.251Z,1.30
2023-01-25T23:03:46.066Z,1.30
2023-01-25T23:06:23.265Z,1.30
2023-01-25T23:08:51.154Z,1.20
2023-01-25T23:11:18.910Z,1.20
2023-01-25T23:14:05.788Z,1.20
2023-01-25T23:16:32.609Z,1.30
2023-01-25T23:18:59.593Z,1.20
2023-01-25T23:21:27.767Z,1.20
2023-01-25T23:23:55.156Z,1.20
2023-01-25T23:26:22.309Z,1.20
2023-01-25T23:28:54.637Z,1.10
2023-01-25T23:31:22.214Z,1.10
2023-01-25T23:33:50.209Z,1.10
2023-01-25T23:36:18.501Z,1.20
2023-01-25T23:38:46.163Z,1.20
2023-01-25T23:41:13.463Z,1.20
2023-01-25T23:43:40.122Z,1.30
2023-01-25T23:46:06.953Z,1.20
2023-01-25T23:48:34.002Z,1.20
2023-01-25T23:51:02.538Z,1.30
2023-01-25T23:53:30.955Z,1.30
2023-01-25T23:55:58.693Z,1.40
2023-01-25T23:58:25.452Z,1.40
